首页
METAR-TAF:

METAR-TAF

机场 :

威斯巴登, 德国

纬度: 50-03N, 经度: 008-20E, 海拔: 140米

当前天气观测

该预报发布于39分钟前的04:16 UTC
风速7节,风向东转东南
温度 4°C
湿度 93%
气压 1002 hPa
能见度10公里或以上
多云层高于1700英尺
多云层高于3900英尺

METAR: ETOU 140416Z AUTO 12007KT 9999 BKN017 BKN039 04/03 A2960 RMK AO2 SLP030 $

时间: 05:55 (04:55 UTC)

预报

该预报发布于51分钟前的04:04 UTC
预报有效从14日的 04点(UTC)到 15日的 10点(UTC)
风速6节,风向多变
能见度10公里或以上
散云层高于2000英尺
多云层高于3000英尺
成为
从 14日的 07点(UTC)到 14日的 08点(UTC)
风速6节,风向多变
能见度10公里或以上
散云层高于2000英尺
成为
从 14日的 23点(UTC)到 14日的 24点(UTC)
风速9节,风向东北
能见度10公里或以上
少量云层高于7000英尺
散云层高于8000英尺
成为
从 15日的 05点(UTC)到 15日的 06点(UTC)
风速6节,风向多变
能见度10公里或以上
少量云层高于9000英尺

TAF: ETOU 140404Z 1404/1510 VRB06KT 9999 SCT020 BKN030 620306 QNH2948INS BECMG 1407/1408 VRB06KT 9999 SCT020 QNH2953INS BECMG 1423/1424 05009KT 9999 FEW070 SCT080 QNH2968INS BECMG 1505/1506 VRB06KT 9999 FEW090 QNH2974INS TX08/1412Z TN00/1503Z

超过4000个机场的气象观测和天气预报(METAR&TAF报告)。

可查询的气象台以黄色和红色小点在地图上表示。

将鼠标移到小点上方,可查看气象台名称。

然后点击查看天气观测和预报。

如需切换地图:点击带黑十字的绿色按钮放大地图;点击带横线的绿色按钮缩小地图;或者点击绿色箭头查看邻近地区的地图。


METAR-TAF: